createdAt,value
2022-08-17T00:02:25.836Z,6.30
2022-08-17T00:04:54.085Z,6.63
2022-08-17T00:07:20.949Z,6.97
2022-08-17T00:09:47.726Z,6.20
2022-08-17T00:12:40.724Z,6.37
2022-08-17T00:15:01.913Z,6.20
2022-08-17T00:17:29.015Z,5.90
2022-08-17T00:19:55.761Z,6.10
2022-08-17T00:22:33.564Z,6.47
2022-08-17T00:25:09.890Z,6.27
2022-08-17T00:27:37.084Z,6.60
2022-08-17T00:30:07.723Z,6.43
2022-08-17T00:33:14.210Z,6.80
2022-08-17T00:35:34.709Z,6.60
2022-08-17T00:38:01.801Z,6.40
2022-08-17T00:40:40.636Z,6.47
2022-08-17T00:43:29.175Z,6.30
2022-08-17T00:46:00.097Z,6.20
2022-08-17T00:48:30.097Z,6.40
2022-08-17T00:51:34.881Z,6.40
2022-08-17T00:54:20.398Z,6.17
2022-08-17T00:57:05.758Z,6.37
2022-08-17T00:59:38.929Z,6.50
2022-08-17T01:02:08.605Z,6.30
2022-08-17T01:04:36.564Z,6.83
2022-08-17T01:07:05.154Z,5.80
2022-08-17T01:09:32.910Z,6.33
2022-08-17T01:12:00.044Z,6.00
2022-08-17T01:14:27.925Z,6.30
2022-08-17T01:16:56.143Z,6.70
2022-08-17T01:19:26.649Z,6.40
2022-08-17T01:22:07.375Z,6.27
2022-08-17T01:24:35.957Z,6.10
2022-08-17T01:27:10.288Z,6.27
2022-08-17T01:29:39.516Z,6.40
2022-08-17T01:32:08.179Z,6.50
2022-08-17T01:34:43.402Z,6.63
2022-08-17T01:37:12.214Z,6.23
2022-08-17T01:39:42.866Z,7.00
2022-08-17T01:42:26.491Z,6.50
2022-08-17T01:44:56.944Z,6.17
2022-08-17T01:47:24.043Z,6.80
2022-08-17T01:49:51.617Z,6.57
2022-08-17T01:52:19.456Z,6.37
2022-08-17T01:54:51.669Z,6.17
2022-08-17T01:57:18.629Z,6.17
2022-08-17T01:59:45.468Z,6.20
2022-08-17T02:02:12.257Z,6.30
2022-08-17T02:04:57.215Z,6.17
2022-08-17T02:07:26.051Z,6.27
2022-08-17T02:09:54.388Z,6.60
2022-08-17T02:12:37.829Z,6.40
2022-08-17T02:15:08.260Z,6.83
2022-08-17T02:17:35.350Z,6.97
2022-08-17T02:20:02.351Z,6.97
2022-08-17T02:22:29.561Z,6.10
2022-08-17T02:24:58.615Z,6.73
2022-08-17T02:27:28.092Z,7.00
2022-08-17T02:29:54.938Z,6.17
2022-08-17T02:32:28.147Z,6.73
2022-08-17T02:34:56.533Z,6.87
2022-08-17T02:37:23.590Z,6.33
2022-08-17T02:39:50.444Z,6.50
2022-08-17T02:42:17.836Z,7.03
2022-08-17T02:44:45.245Z,6.70
2022-08-17T02:47:12.659Z,6.23
2022-08-17T02:49:39.425Z,6.73
2022-08-17T02:52:07.964Z,6.67
2022-08-17T02:54:41.131Z,6.43
2022-08-17T02:57:10.003Z,6.60
2022-08-17T02:59:46.724Z,6.90
2022-08-17T03:02:16.151Z,6.20
2022-08-17T03:04:44.610Z,7.13
2022-08-17T03:07:11.816Z,6.70
2022-08-17T03:09:38.597Z,6.60
2022-08-17T03:12:12.791Z,6.30
2022-08-17T03:14:44.076Z,7.10
2022-08-17T03:17:17.399Z,6.30
2022-08-17T03:19:44.943Z,6.40
2022-08-17T03:22:37.320Z,6.43
2022-08-17T03:25:01.989Z,6.70
2022-08-17T03:27:31.552Z,6.40
2022-08-17T03:29:58.455Z,6.67
2022-08-17T03:32:26.981Z,6.83
2022-08-17T03:34:59.563Z,6.70
2022-08-17T03:37:27.113Z,7.30
2022-08-17T03:39:54.496Z,7.40
2022-08-17T03:42:32.301Z,7.10
2022-08-17T03:45:03.294Z,6.40
2022-08-17T03:47:48.553Z,7.47
2022-08-17T03:50:35.310Z,7.30
2022-08-17T03:53:25.548Z,7.27
2022-08-17T03:56:11.378Z,6.80
2022-08-17T03:58:38.229Z,7.43
2022-08-17T04:01:08.395Z,6.83
2022-08-17T04:03:35.290Z,7.07
2022-08-17T04:06:02.240Z,6.80
2022-08-17T04:08:30.258Z,6.90
2022-08-17T04:10:57.691Z,6.70
2022-08-17T04:13:24.498Z,6.70
2022-08-17T04:15:54.897Z,7.10
2022-08-17T04:18:28.294Z,6.50
2022-08-17T04:21:00.350Z,6.17
2022-08-17T04:23:32.688Z,6.47
2022-08-17T04:26:03.449Z,6.60
2022-08-17T04:28:31.123Z,6.20
2022-08-17T04:30:58.617Z,5.90
2022-08-17T04:33:27.548Z,6.07
2022-08-17T04:35:58.359Z,6.27
2022-08-17T04:38:28.914Z,6.10
2022-08-17T04:41:15.962Z,6.30
2022-08-17T04:43:44.695Z,6.50
2022-08-17T04:46:15.003Z,5.70
2022-08-17T04:48:48.329Z,6.20
2022-08-17T04:51:24.358Z,6.50
2022-08-17T04:54:00.997Z,6.23
2022-08-17T04:56:31.793Z,5.70
2022-08-17T04:59:05.186Z,5.60
2022-08-17T05:01:34.359Z,5.60
2022-08-17T05:04:20.911Z,5.20
2022-08-17T05:07:03.023Z,5.80
2022-08-17T05:09:30.231Z,5.60
2022-08-17T05:12:03.877Z,5.00
2022-08-17T05:14:32.712Z,5.43
2022-08-17T05:17:01.289Z,5.23
2022-08-17T05:19:32.197Z,5.10
2022-08-17T05:21:59.000Z,5.27
2022-08-17T05:24:38.559Z,5.40
2022-08-17T05:27:10.370Z,5.07
2022-08-17T05:29:44.011Z,5.10
2022-08-17T05:32:38.146Z,5.50
2022-08-17T05:35:01.877Z,5.20
2022-08-17T05:37:28.661Z,5.10
2022-08-17T05:39:59.140Z,5.10
2022-08-17T05:42:25.905Z,5.07
2022-08-17T05:44:53.063Z,5.10
2022-08-17T05:47:25.978Z,6.00
2022-08-17T05:49:53.851Z,5.63
2022-08-17T05:52:42.337Z,5.40
2022-08-17T05:55:23.660Z,5.30
2022-08-17T06:01:19.853Z,5.23
2022-08-17T06:04:20.432Z,4.90
2022-08-17T06:06:55.379Z,5.33
2022-08-17T06:09:40.734Z,5.50
2022-08-17T06:12:21.751Z,5.37
2022-08-17T06:15:14.585Z,5.27
2022-08-17T06:17:43.112Z,5.17
2022-08-17T06:20:13.316Z,4.80
2022-08-17T06:22:50.384Z,5.00
2022-08-17T06:25:50.403Z,5.00
2022-08-17T06:28:35.315Z,4.90
2022-08-17T06:31:08.392Z,5.10
2022-08-17T06:33:39.213Z,5.60
2022-08-17T06:36:42.311Z,5.17
2022-08-17T06:39:54.133Z,5.93
2022-08-17T06:43:06.907Z,5.40
2022-08-17T06:45:49.015Z,4.67
2022-08-17T06:48:25.521Z,4.57
2022-08-17T06:51:07.802Z,4.57
2022-08-17T06:53:40.709Z,4.90
2022-08-17T06:56:12.880Z,4.70
2022-08-17T06:58:43.305Z,4.87
2022-08-17T07:01:15.127Z,4.50
2022-08-17T07:03:54.579Z,4.40
2022-08-17T07:06:32.958Z,4.13
2022-08-17T07:09:15.765Z,4.70
2022-08-17T07:12:10.210Z,4.60
2022-08-17T07:14:52.848Z,4.33
2022-08-17T07:17:22.905Z,4.50
2022-08-17T07:20:15.008Z,3.80
2022-08-17T07:23:00.261Z,4.13
2022-08-17T07:25:30.341Z,4.20
2022-08-17T07:28:02.551Z,4.30
2022-08-17T07:30:45.831Z,3.90
2022-08-17T07:33:22.584Z,4.20
2022-08-17T07:35:50.164Z,4.23
2022-08-17T07:38:28.695Z,4.78
2022-08-17T07:41:01.887Z,4.03
2022-08-17T07:43:34.809Z,5.10
2022-08-17T07:46:42.384Z,4.40
2022-08-17T07:49:11.664Z,4.23
2022-08-17T07:51:45.805Z,4.63
2022-08-17T07:54:15.598Z,5.07
2022-08-17T07:56:52.437Z,4.60
2022-08-17T07:59:33.269Z,5.10
2022-08-17T08:02:06.893Z,4.95
2022-08-17T08:05:05.596Z,4.60
2022-08-17T08:07:39.540Z,4.70
2022-08-17T08:10:27.621Z,4.97
2022-08-17T08:13:14.036Z,4.65
2022-08-17T08:15:53.767Z,4.60
2022-08-17T08:18:53.312Z,4.32
2022-08-17T08:21:19.529Z,4.90
2022-08-17T08:24:12.193Z,4.78
2022-08-17T08:27:02.648Z,4.85
2022-08-17T08:29:44.499Z,4.80
2022-08-17T08:32:21.034Z,4.70
2022-08-17T08:35:01.809Z,4.70
2022-08-17T08:37:43.142Z,5.03
2022-08-17T08:40:20.783Z,4.45
2022-08-17T08:43:31.413Z,3.97
2022-08-17T08:46:10.255Z,4.68
2022-08-17T08:48:58.414Z,4.78
2022-08-17T08:51:36.554Z,4.63
2022-08-17T08:54:06.097Z,5.45
2022-08-17T08:57:11.876Z,4.82
2022-08-17T08:59:41.985Z,4.80
2022-08-17T09:02:42.014Z,5.30
2022-08-17T09:05:22.529Z,5.20
2022-08-17T09:07:57.346Z,5.13
2022-08-17T09:10:49.708Z,5.38
2022-08-17T09:13:28.393Z,5.03
2022-08-17T09:16:06.581Z,5.55
2022-08-17T09:19:01.392Z,5.63
2022-08-17T09:21:44.598Z,5.35
2022-08-17T09:24:28.229Z,6.03
2022-08-17T09:27:02.593Z,5.38
2022-08-17T09:29:35.073Z,5.40
2022-08-17T09:32:17.700Z,5.53
2022-08-17T09:34:52.608Z,5.15
2022-08-17T09:37:38.237Z,5.30
2022-08-17T09:40:21.118Z,5.40
2022-08-17T09:42:59.399Z,5.38
2022-08-17T09:45:50.588Z,5.32
2022-08-17T09:48:22.793Z,5.22
2022-08-17T09:51:22.269Z,5.07
2022-08-17T09:53:50.365Z,4.80
2022-08-17T09:56:24.155Z,5.47
2022-08-17T09:59:17.395Z,5.93
2022-08-17T10:02:04.745Z,5.45
2022-08-17T10:04:55.742Z,5.72
2022-08-17T10:07:43.295Z,5.30
2022-08-17T10:10:19.553Z,5.15
2022-08-17T10:13:00.718Z,5.25
2022-08-17T10:15:52.544Z,5.38
2022-08-17T10:19:02.060Z,5.30
2022-08-17T10:21:50.660Z,5.50
2022-08-17T10:25:22.429Z,6.00
2022-08-17T10:27:51.741Z,7.05
2022-08-17T10:30:25.072Z,5.78
2022-08-17T10:32:55.379Z,5.20
2022-08-17T10:35:41.044Z,5.75
2022-08-17T10:38:38.524Z,5.35
2022-08-17T10:41:17.421Z,5.28
2022-08-17T10:44:38.860Z,5.40
2022-08-17T10:47:14.975Z,5.32
2022-08-17T10:49:47.677Z,6.00
2022-08-17T10:52:21.699Z,5.40
2022-08-17T10:55:13.744Z,5.35
2022-08-17T10:57:43.589Z,5.63
2022-08-17T11:00:18.914Z,5.10
2022-08-17T11:02:57.344Z,5.68
2022-08-17T11:05:55.152Z,4.78
2022-08-17T11:09:00.810Z,5.40
2022-08-17T11:11:51.438Z,5.55
2022-08-17T11:14:24.151Z,5.13
2022-08-17T11:17:19.303Z,5.40
2022-08-17T11:19:58.150Z,5.35
2022-08-17T11:22:44.028Z,5.28
2022-08-17T11:25:13.816Z,5.20
2022-08-17T11:27:41.675Z,5.50
2022-08-17T11:30:12.939Z,5.20
2022-08-17T11:32:54.323Z,5.70
2022-08-17T11:35:21.848Z,5.75
2022-08-17T11:38:31.590Z,5.32
2022-08-17T11:41:16.437Z,5.88
2022-08-17T11:43:56.248Z,5.70
2022-08-17T11:46:51.760Z,5.70
2022-08-17T11:50:00.106Z,5.65
2022-08-17T11:52:49.019Z,5.93
2022-08-17T11:55:38.433Z,5.47
2022-08-17T11:58:29.060Z,5.47
2022-08-17T12:01:00.565Z,5.57
2022-08-17T12:03:31.571Z,5.70
2022-08-17T12:06:31.686Z,5.90
2022-08-17T12:09:11.132Z,5.70
2022-08-17T12:12:13.018Z,5.30
2022-08-17T12:17:40.218Z,5.00
2022-08-17T12:20:21.437Z,5.55
2022-08-17T12:23:03.944Z,5.20
2022-08-17T12:25:57.500Z,4.97
2022-08-17T12:28:29.948Z,5.53
2022-08-17T12:31:02.466Z,4.85
2022-08-17T12:33:29.462Z,5.13
2022-08-17T12:36:05.150Z,5.30
2022-08-17T12:38:35.999Z,5.13
2022-08-17T12:41:25.615Z,4.93
2022-08-17T12:44:02.397Z,5.22
2022-08-17T12:46:49.523Z,5.10
2022-08-17T12:49:35.724Z,5.47
2022-08-17T12:52:12.361Z,5.20
2022-08-17T12:54:59.694Z,5.32
2022-08-17T12:57:38.525Z,5.45
2022-08-17T13:00:22.464Z,5.43
2022-08-17T13:02:57.966Z,4.57
2022-08-17T13:05:35.903Z,4.80
2022-08-17T13:08:14.047Z,5.10
2022-08-17T13:10:41.117Z,8.23
2022-08-17T13:13:21.869Z,5.50
2022-08-17T13:16:14.478Z,5.57
2022-08-17T13:18:42.951Z,4.50
2022-08-17T13:21:28.000Z,4.80
2022-08-17T13:24:11.887Z,5.10
2022-08-17T13:26:43.207Z,4.90
2022-08-17T13:29:24.431Z,5.22
2022-08-17T13:31:56.623Z,4.90
2022-08-17T13:34:56.119Z,5.07
2022-08-17T13:37:33.108Z,5.45
2022-08-17T13:40:22.669Z,4.60
2022-08-17T13:42:54.150Z,5.18
2022-08-17T13:45:36.858Z,4.80
2022-08-17T13:48:13.576Z,4.80
2022-08-17T13:50:47.029Z,4.68
2022-08-17T13:53:22.451Z,4.05
2022-08-17T13:55:55.325Z,5.07
2022-08-17T13:58:34.886Z,4.90
2022-08-17T14:01:41.400Z,4.43
2022-08-17T14:04:10.034Z,4.18
2022-08-17T14:07:09.242Z,4.50
2022-08-17T14:09:57.581Z,4.40
2022-08-17T14:12:27.110Z,4.68
2022-08-17T14:14:56.282Z,4.50
2022-08-17T14:17:24.602Z,4.30
2022-08-17T14:19:51.890Z,4.68
2022-08-17T14:22:25.606Z,4.53
2022-08-17T14:24:52.933Z,4.57
2022-08-17T14:27:20.764Z,4.82
2022-08-17T14:29:48.596Z,3.90
2022-08-17T14:32:32.338Z,4.63
2022-08-17T14:35:03.632Z,3.90
2022-08-17T14:37:31.264Z,4.00
2022-08-17T14:39:59.994Z,3.80
2022-08-17T14:42:31.140Z,4.40
2022-08-17T14:44:58.790Z,4.45
2022-08-17T14:47:26.631Z,4.13
2022-08-17T14:49:53.958Z,4.53
2022-08-17T14:52:21.682Z,4.20
2022-08-17T14:54:52.884Z,4.15
2022-08-17T14:57:24.862Z,4.97
2022-08-17T15:00:01.556Z,4.60
2022-08-17T15:02:30.521Z,4.72
2022-08-17T15:05:05.778Z,4.90
2022-08-17T15:07:32.551Z,5.07
2022-08-17T15:10:01.915Z,4.63
2022-08-17T15:12:33.399Z,4.50
2022-08-17T15:15:04.859Z,4.50
2022-08-17T15:17:54.596Z,4.35
2022-08-17T15:20:25.366Z,4.65
2022-08-17T15:22:56.006Z,4.53
2022-08-17T15:25:26.501Z,4.32
2022-08-17T15:27:55.848Z,4.30
2022-08-17T15:30:23.313Z,4.50
2022-08-17T15:32:54.995Z,4.43
2022-08-17T15:35:29.402Z,4.20
2022-08-17T15:38:07.913Z,3.92
2022-08-17T15:40:43.141Z,4.03
2022-08-17T15:43:14.489Z,4.10
2022-08-17T15:45:42.106Z,4.30
2022-08-17T15:48:09.603Z,3.80
2022-08-17T15:50:36.884Z,4.20
2022-08-17T15:53:04.890Z,4.28
2022-08-17T15:55:32.944Z,4.00
2022-08-17T15:58:00.394Z,3.97
2022-08-17T16:00:29.114Z,4.38
2022-08-17T16:03:44.795Z,4.13
2022-08-17T16:05:44.332Z,3.88
2022-08-17T16:08:17.099Z,4.03
2022-08-17T16:10:47.004Z,4.10
2022-08-17T16:13:17.682Z,4.28
2022-08-17T16:15:57.148Z,4.38
2022-08-17T16:18:28.167Z,4.18
2022-08-17T16:20:55.122Z,4.22
2022-08-17T16:23:22.063Z,3.85
2022-08-17T16:25:53.605Z,3.90
2022-08-17T16:28:21.768Z,4.05
2022-08-17T16:30:50.015Z,4.20
2022-08-17T16:33:17.762Z,4.10
2022-08-17T16:35:44.669Z,4.70
2022-08-17T16:38:12.596Z,4.47
2022-08-17T16:40:40.413Z,4.30
2022-08-17T16:43:10.454Z,4.25
2022-08-17T16:45:40.207Z,4.10
2022-08-17T16:48:08.702Z,4.10
2022-08-17T16:50:36.721Z,4.00
2022-08-17T16:53:10.693Z,4.25
2022-08-17T16:55:37.809Z,4.38
2022-08-17T16:58:06.840Z,4.40
2022-08-17T17:00:34.465Z,3.92
2022-08-17T17:03:19.792Z,4.07
2022-08-17T17:06:08.175Z,3.88
2022-08-17T17:08:44.691Z,4.20
2022-08-17T17:11:25.709Z,4.20
2022-08-17T17:14:02.107Z,4.70
2022-08-17T17:16:28.826Z,4.30
2022-08-17T17:19:34.297Z,4.30
2022-08-17T17:22:18.200Z,4.32
2022-08-17T17:25:01.220Z,4.57
2022-08-17T17:27:40.081Z,4.78
2022-08-17T17:30:14.472Z,5.32
2022-08-17T17:33:04.556Z,4.30
2022-08-17T17:35:53.558Z,4.80
2022-08-17T17:38:45.338Z,4.95
2022-08-17T17:41:26.425Z,4.80
2022-08-17T17:44:08.103Z,4.93
2022-08-17T17:46:39.655Z,5.20
2022-08-17T17:49:06.576Z,4.68
2022-08-17T17:52:07.626Z,4.80
2022-08-17T17:55:04.309Z,4.13
2022-08-17T17:57:46.803Z,4.40
2022-08-17T18:00:24.835Z,4.57
2022-08-17T18:03:06.468Z,4.38
2022-08-17T18:06:08.047Z,4.78
2022-08-17T18:09:04.221Z,4.20
2022-08-17T18:12:00.898Z,4.30
2022-08-17T18:15:03.606Z,4.82
2022-08-17T18:17:31.023Z,4.50
2022-08-17T18:19:57.844Z,4.75
2022-08-17T18:22:26.240Z,5.40
2022-08-17T18:24:56.397Z,5.47
2022-08-17T18:27:40.129Z,5.30
2022-08-17T18:30:12.799Z,5.45
2022-08-17T18:32:42.405Z,5.55
2022-08-17T18:35:09.183Z,7.10
2022-08-17T18:37:51.388Z,5.95
2022-08-17T18:40:19.895Z,5.40
2022-08-17T18:42:58.053Z,5.25
2022-08-17T18:45:38.391Z,5.15
2022-08-17T18:48:18.747Z,5.85
2022-08-17T18:50:46.224Z,5.55
2022-08-17T18:53:38.500Z,5.30
2022-08-17T18:56:19.871Z,5.70
2022-08-17T18:59:02.404Z,5.13
2022-08-17T19:01:46.976Z,6.20
2022-08-17T19:04:56.809Z,8.48
2022-08-17T19:07:28.578Z,7.47
2022-08-17T19:10:18.064Z,6.30
2022-08-17T19:13:12.297Z,6.35
2022-08-17T19:16:15.439Z,6.45
2022-08-17T19:19:20.505Z,6.32
2022-08-17T19:21:59.196Z,6.63
2022-08-17T19:24:29.900Z,6.55
2022-08-17T19:26:58.756Z,6.50
2022-08-17T19:30:07.547Z,6.38
2022-08-17T19:32:35.777Z,5.97
2022-08-17T19:35:05.195Z,6.00
2022-08-17T19:37:54.076Z,6.40
2022-08-17T19:40:51.594Z,6.45
2022-08-17T19:43:17.575Z,19.00
2022-08-17T19:46:26.040Z,12.48
2022-08-17T19:49:12.190Z,8.32
2022-08-17T19:51:40.495Z,8.23
2022-08-17T19:54:34.820Z,7.90
2022-08-17T19:57:18.097Z,8.63
2022-08-17T20:00:01.127Z,7.28
2022-08-17T20:02:41.523Z,6.50
2022-08-17T20:05:22.785Z,6.40
2022-08-17T20:08:02.343Z,6.57
2022-08-17T20:10:54.831Z,6.68
2022-08-17T20:13:45.379Z,6.40
2022-08-17T20:16:12.566Z,6.67
2022-08-17T20:19:00.099Z,5.13
2022-08-17T20:21:45.692Z,6.55
2022-08-17T20:24:37.488Z,5.72
2022-08-17T20:27:18.335Z,5.73
2022-08-17T20:30:07.196Z,5.70
2022-08-17T20:32:51.985Z,5.50
2022-08-17T20:35:25.032Z,5.35
2022-08-17T20:38:13.371Z,5.63
2022-08-17T20:41:00.629Z,5.80
2022-08-17T20:43:33.501Z,5.68
2022-08-17T20:46:03.413Z,5.82
2022-08-17T20:48:38.280Z,5.60
2022-08-17T20:51:32.387Z,5.43
2022-08-17T20:54:06.809Z,5.50
2022-08-17T20:56:43.246Z,5.57
2022-08-17T20:59:31.495Z,5.55
2022-08-17T21:02:18.653Z,5.60
2022-08-17T21:04:54.924Z,5.88
2022-08-17T21:07:42.782Z,5.50
2022-08-17T21:10:19.732Z,5.60
2022-08-17T21:12:52.673Z,5.70
2022-08-17T21:15:57.048Z,5.43
2022-08-17T21:18:52.623Z,5.37
2022-08-17T21:21:48.119Z,5.10
2022-08-17T21:24:44.241Z,5.07
2022-08-17T21:27:33.085Z,5.43
2022-08-17T21:30:06.386Z,5.70
2022-08-17T21:32:37.022Z,6.27
2022-08-17T21:35:26.648Z,6.18
2022-08-17T21:38:04.413Z,5.88
2022-08-17T21:40:34.027Z,5.67
2022-08-17T21:43:25.009Z,5.60
2022-08-17T21:46:10.017Z,6.67
2022-08-17T21:48:48.324Z,5.90
2022-08-17T21:51:23.389Z,6.13
2022-08-17T21:54:02.648Z,5.93
2022-08-17T21:56:31.060Z,4.93
2022-08-17T21:59:02.192Z,5.67
2022-08-17T22:01:39.095Z,5.17
2022-08-17T22:04:11.685Z,5.40
2022-08-17T22:06:41.285Z,5.37
2022-08-17T22:09:37.220Z,4.90
2022-08-17T22:12:07.122Z,5.20
2022-08-17T22:14:52.754Z,6.60
2022-08-17T22:17:28.665Z,18.97
2022-08-17T22:20:01.373Z,9.27
2022-08-17T22:22:34.880Z,10.13
2022-08-17T22:25:06.752Z,8.07
2022-08-17T22:27:50.370Z,6.53
2022-08-17T22:30:31.868Z,7.67
2022-08-17T22:33:03.515Z,7.13
2022-08-17T22:35:39.276Z,7.50
2022-08-17T22:38:22.120Z,7.03
2022-08-17T22:40:52.401Z,7.00
2022-08-17T22:43:24.226Z,6.60
2022-08-17T22:45:56.828Z,6.80
2022-08-17T22:48:27.392Z,6.23
2022-08-17T22:51:13.390Z,6.97
2022-08-17T22:54:13.361Z,6.77
2022-08-17T22:57:18.756Z,7.60
2022-08-17T22:59:56.367Z,7.97
2022-08-17T23:02:32.522Z,8.37
2022-08-17T23:05:20.401Z,9.07
2022-08-17T23:07:53.023Z,9.20
2022-08-17T23:10:20.634Z,9.57
2022-08-17T23:12:49.125Z,9.03
2022-08-17T23:15:23.084Z,9.40
2022-08-17T23:17:56.178Z,9.50
2022-08-17T23:20:22.992Z,9.70
2022-08-17T23:22:55.183Z,9.70
2022-08-17T23:28:14.353Z,10.63
2022-08-17T23:30:44.525Z,10.57
2022-08-17T23:33:30.209Z,9.77
2022-08-17T23:35:59.523Z,9.70
2022-08-17T23:38:27.499Z,9.90
2022-08-17T23:40:55.608Z,9.70
2022-08-17T23:43:23.975Z,9.50
2022-08-17T23:46:03.855Z,10.70
2022-08-17T23:48:36.547Z,10.00
2022-08-17T23:51:14.103Z,9.77
2022-08-17T23:53:49.786Z,10.20
2022-08-17T23:56:24.432Z,9.37
2022-08-17T23:58:51.896Z,9.70
